createdAt,value
2016-09-08T00:03:24.450Z,"  -79"
2016-09-08T00:08:21.005Z,"  -78"
2016-09-08T00:13:17.496Z,"  -80"
2016-09-08T00:18:13.987Z,"  -78"
2016-09-08T00:23:10.462Z,"  -80"
2016-09-08T00:28:07.153Z,"  -79"
2016-09-08T00:33:06.148Z,"  -79"
2016-09-08T00:38:02.178Z,"  -79"
2016-09-08T00:42:58.681Z,"  -79"
2016-09-08T00:47:55.337Z,"  -79"
2016-09-08T00:52:51.682Z,"  -79"
2016-09-08T00:57:48.499Z,"  -80"
2016-09-08T01:02:45.139Z,"  -79"
2016-09-08T01:07:41.687Z,"  -78"
2016-09-08T01:12:38.704Z,"  -79"
2016-09-08T01:17:35.279Z,"  -78"
2016-09-08T01:22:31.966Z,"  -78"
2016-09-08T01:27:29.090Z,"  -78"
2016-09-08T01:32:25.681Z,"  -78"
2016-09-08T01:37:22.254Z,"  -78"
2016-09-08T01:42:18.827Z,"  -78"
2016-09-08T01:47:15.791Z,"  -78"
2016-09-08T01:52:12.333Z,"  -79"
2016-09-08T01:57:09.192Z,"  -78"
2016-09-08T02:02:07.178Z,"  -78"
2016-09-08T02:07:03.430Z,"  -78"
2016-09-08T02:11:59.953Z,"  -78"
2016-09-08T02:16:56.933Z,"  -77"
2016-09-08T02:21:53.837Z,"  -78"
2016-09-08T02:26:50.240Z,"  -77"
2016-09-08T02:31:46.836Z,"  -78"
2016-09-08T02:36:43.605Z,"  -78"
2016-09-08T02:41:40.359Z,"  -78"
2016-09-08T02:46:37.569Z,"  -77"
2016-09-08T02:51:34.164Z,"  -78"
2016-09-08T02:56:30.784Z,"  -78"
2016-09-08T03:01:27.362Z,"  -78"
2016-09-08T03:06:24.255Z,"  -77"
2016-09-08T03:11:20.687Z,"  -78"
2016-09-08T03:16:17.254Z,"  -77"
2016-09-08T03:21:16.367Z,"  -78"
2016-09-08T03:26:12.390Z,"  -78"
2016-09-08T03:31:09.342Z,"  -78"
2016-09-08T03:36:06.280Z,"  -78"
2016-09-08T03:41:02.865Z,"  -78"
2016-09-08T03:45:59.405Z,"  -78"
2016-09-08T03:50:58.953Z,"  -78"
2016-09-08T03:55:55.122Z,"  -78"
2016-09-08T04:00:51.616Z,"  -78"
2016-09-08T04:05:48.232Z,"  -77"
2016-09-08T04:10:44.968Z,"  -77"
2016-09-08T04:15:41.579Z,"  -77"
2016-09-08T04:20:38.537Z,"  -77"
2016-09-08T04:25:35.018Z,"  -78"
2016-09-08T04:30:32.072Z,"  -77"
2016-09-08T04:35:29.244Z,"  -78"
2016-09-08T04:40:25.688Z,"  -79"
2016-09-08T04:45:22.090Z,"  -77"
2016-09-08T04:50:19.761Z,"  -77"
2016-09-08T04:55:16.536Z,"  -77"
2016-09-08T05:00:13.227Z,"  -77"
2016-09-08T05:05:09.985Z,"  -77"
2016-09-08T05:10:06.581Z,"  -77"
2016-09-08T05:15:03.119Z,"  -77"
2016-09-08T05:19:59.997Z,"  -77"
2016-09-08T05:24:56.432Z,"  -76"
2016-09-08T05:29:53.496Z,"  -77"
2016-09-08T05:34:50.702Z,"  -77"
2016-09-08T05:39:47.812Z,"  -77"
2016-09-08T05:44:44.443Z,"  -77"
2016-09-08T05:49:41.019Z,"  -77"
2016-09-08T05:54:37.640Z,"  -77"
2016-09-08T05:59:34.831Z,"  -77"
2016-09-08T06:04:31.553Z,"  -77"
2016-09-08T06:09:27.970Z,"  -78"
2016-09-08T06:14:25.174Z,"  -78"
2016-09-08T06:19:21.621Z,"  -68"
2016-09-08T06:24:18.886Z,"  -78"
2016-09-08T06:29:15.576Z,"  -78"
2016-09-08T06:34:12.308Z,"  -78"
2016-09-08T06:39:08.909Z,"  -78"
2016-09-08T06:44:05.916Z,"  -79"
2016-09-08T06:49:02.583Z,"  -78"
2016-09-08T06:53:59.299Z,"  -78"
2016-09-08T06:58:55.934Z,"  -78"
2016-09-08T07:03:52.524Z,"  -77"
2016-09-08T07:08:49.052Z,"  -79"
2016-09-08T07:13:45.562Z,"  -79"
2016-09-08T07:18:42.665Z,"  -79"
2016-09-08T07:23:39.633Z,"  -80"
2016-09-08T07:28:38.972Z,"  -79"
2016-09-08T07:33:35.491Z,"  -79"
2016-09-08T07:38:32.184Z,"  -80"
2016-09-08T07:43:28.947Z,"  -77"
2016-09-08T07:48:26.347Z,"  -79"
2016-09-08T07:53:24.296Z,"  -81"
2016-09-08T07:58:20.808Z,"  -80"
2016-09-08T08:03:17.808Z,"  -79"
2016-09-08T08:08:14.391Z,"  -78"
2016-09-08T08:13:11.165Z,"  -79"
2016-09-08T08:18:08.575Z,"  -80"
2016-09-08T08:23:05.976Z,"  -79"
2016-09-08T08:28:05.870Z,"  -80"
2016-09-08T08:33:02.333Z,"  -77"
2016-09-08T08:37:59.130Z,"  -77"
2016-09-08T08:42:56.071Z,"  -78"
2016-09-08T08:47:52.716Z,"  -77"
2016-09-08T08:52:49.073Z,"  -79"
2016-09-08T08:57:48.232Z,"  -77"
2016-09-08T09:02:44.070Z,"  -83"
2016-09-08T09:07:40.517Z,"  -83"
2016-09-08T09:12:37.117Z,"  -81"
2016-09-08T09:17:33.447Z,"  -82"
2016-09-08T09:22:30.222Z,"  -80"
2016-09-08T09:27:26.799Z,"  -80"
2016-09-08T09:32:23.292Z,"  -82"
2016-09-08T09:37:19.946Z,"  -82"
2016-09-08T09:42:16.499Z,"  -81"
2016-09-08T09:47:13.095Z,"  -81"
2016-09-08T09:52:09.701Z,"  -80"
2016-09-08T09:57:06.591Z,"  -79"
2016-09-08T10:02:03.179Z,"  -81"
2016-09-08T10:06:59.865Z,"  -81"
2016-09-08T10:11:56.555Z,"  -82"
2016-09-08T10:16:53.272Z,"  -82"
2016-09-08T10:21:49.934Z,"  -82"
2016-09-08T10:26:46.604Z,"  -82"
2016-09-08T10:31:43.338Z,"  -82"
2016-09-08T10:36:39.979Z,"  -83"
2016-09-08T10:41:36.685Z,"  -81"
2016-09-08T10:46:33.319Z,"  -83"
2016-09-08T10:51:29.876Z,"  -81"
2016-09-08T10:56:26.536Z,"  -82"
2016-09-08T11:01:23.248Z,"  -82"
2016-09-08T11:06:19.821Z,"  -82"
2016-09-08T11:11:16.505Z,"  -83"
2016-09-08T11:16:13.246Z,"  -82"
2016-09-08T11:21:09.950Z,"  -83"
2016-09-08T11:26:07.958Z,"  -81"
2016-09-08T11:31:04.460Z,"  -79"
2016-09-08T11:36:01.053Z,"  -79"
2016-09-08T11:40:57.830Z,"  -79"
2016-09-08T11:45:54.718Z,"  -79"
2016-09-08T11:50:51.297Z,"  -79"
2016-09-08T11:55:47.935Z,"  -79"
2016-09-08T12:00:44.583Z,"  -79"
2016-09-08T12:05:41.491Z,"  -79"
2016-09-08T12:10:38.369Z,"  -79"
2016-09-08T12:15:35.062Z,"  -79"
2016-09-08T12:20:31.714Z,"  -79"
2016-09-08T12:25:28.369Z,"  -78"
2016-09-08T12:30:24.992Z,"  -78"
2016-09-08T12:35:22.626Z,"  -79"
2016-09-08T12:40:19.139Z,"  -79"
2016-09-08T12:45:15.784Z,"  -78"
2016-09-08T12:50:12.380Z,"  -80"
2016-09-08T12:55:11.452Z,"  -80"
2016-09-08T13:00:07.523Z,"  -79"
2016-09-08T13:05:04.302Z,"  -79"
2016-09-08T13:10:00.798Z,"  -79"
2016-09-08T13:14:57.513Z,"  -79"
2016-09-08T13:19:54.249Z,"  -78"
2016-09-08T13:24:50.909Z,"  -79"
2016-09-08T13:29:47.514Z,"  -79"
2016-09-08T13:34:44.387Z,"  -80"
2016-09-08T13:39:40.871Z,"  -79"
2016-09-08T13:44:37.832Z,"  -80"
2016-09-08T13:49:34.668Z,"  -80"
2016-09-08T13:54:31.161Z,"  -80"
2016-09-08T13:59:27.879Z,"  -80"
2016-09-08T14:04:25.065Z,"  -80"
2016-09-08T14:09:21.685Z,"  -79"
2016-09-08T14:14:18.287Z,"  -80"
2016-09-08T14:19:14.983Z,"  -80"
2016-09-08T14:24:13.004Z,"  -78"
2016-09-08T14:29:09.134Z,"  -79"
2016-09-08T14:34:05.902Z,"  -79"
2016-09-08T14:39:02.791Z,"  -79"
2016-09-08T14:43:59.331Z,"  -80"
2016-09-08T14:48:56.187Z,"  -79"
2016-09-08T14:53:55.414Z,"  -80"
2016-09-08T14:58:51.391Z,"  -80"
2016-09-08T15:03:48.089Z,"  -78"
2016-09-08T15:08:44.939Z,"  -78"
2016-09-08T15:13:41.912Z,"  -78"
2016-09-08T15:18:38.577Z,"  -77"
2016-09-08T15:23:35.256Z,"  -77"
2016-09-08T15:28:31.722Z,"  -76"
2016-09-08T15:33:28.291Z,"  -78"
2016-09-08T15:38:25.131Z,"  -77"
2016-09-08T15:43:21.755Z,"  -78"
2016-09-08T15:48:18.241Z,"  -77"
2016-09-08T15:53:15.238Z,"  -73"
2016-09-08T15:58:11.643Z,"  -69"
2016-09-08T16:03:08.725Z,"  -73"
2016-09-08T16:08:05.525Z,"  -67"
2016-09-08T16:13:02.999Z,"  -70"
2016-09-08T16:17:59.646Z,"  -76"
2016-09-08T16:22:56.430Z,"  -73"
2016-09-08T16:27:52.888Z,"  -83"
2016-09-08T16:32:49.559Z,"  -70"
2016-09-08T16:37:46.222Z,"  -71"
2016-09-08T16:42:43.361Z,"  -71"
2016-09-08T16:47:42.571Z,"  -75"
2016-09-08T16:52:39.057Z,"  -75"
2016-09-08T16:57:35.692Z,"  -80"
2016-09-08T17:02:32.635Z,"  -80"
2016-09-08T17:07:29.348Z,"  -81"
2016-09-08T17:12:25.961Z,"  -82"
2016-09-08T17:17:23.730Z,"  -81"
2016-09-08T17:22:20.068Z,"  -83"
2016-09-08T17:27:16.983Z,"  -84"
2016-09-08T17:32:16.176Z,"  -81"
2016-09-08T17:37:12.392Z,"  -81"
2016-09-08T17:42:09.266Z,"  -80"
2016-09-08T17:47:06.187Z,"  -81"
2016-09-08T17:52:02.905Z,"  -84"
2016-09-08T17:56:59.969Z,"  -80"
2016-09-08T18:01:56.766Z,"  -80"
2016-09-08T18:06:53.562Z,"  -80"
2016-09-08T18:11:50.323Z,"  -76"
2016-09-08T18:16:47.639Z,"  -74"
2016-09-08T18:21:44.625Z,"  -72"
2016-09-08T18:26:41.631Z,"  -72"
2016-09-08T18:31:41.228Z,"  -71"
2016-09-08T18:36:37.712Z,"  -77"
2016-09-08T18:41:34.683Z,"  -73"
2016-09-08T18:46:32.506Z,"  -75"
2016-09-08T18:51:29.281Z,"  -77"
2016-09-08T18:56:26.177Z,"  -71"
2016-09-08T19:01:22.983Z,"  -74"
2016-09-08T19:06:20.118Z,"  -77"
2016-09-08T19:11:16.901Z,"  -81"
2016-09-08T19:16:13.765Z,"  -74"
2016-09-08T19:21:10.491Z,"  -75"
2016-09-08T19:26:07.379Z,"  -74"
2016-09-08T19:31:04.172Z,"  -76"
2016-09-08T19:36:00.940Z,"  -73"
2016-09-08T19:40:58.835Z,"  -75"
2016-09-08T19:45:55.704Z,"  -75"
2016-09-08T19:50:52.530Z,"  -74"
2016-09-08T19:55:49.360Z,"  -74"
2016-09-08T20:00:46.184Z,"  -73"
2016-09-08T20:05:42.973Z,"  -74"
2016-09-08T20:10:40.237Z,"  -75"
2016-09-08T20:15:37.305Z,"  -74"
2016-09-08T20:20:34.067Z,"  -74"
2016-09-08T20:25:30.937Z,"  -75"
2016-09-08T20:30:27.804Z,"  -75"
2016-09-08T20:35:24.544Z,"  -74"
2016-09-08T20:40:21.316Z,"  -75"
2016-09-08T20:45:18.239Z,"  -75"
2016-09-08T20:50:14.924Z,"  -73"
2016-09-08T20:55:11.906Z,"  -73"
2016-09-08T21:00:08.660Z,"  -72"
2016-09-08T21:05:07.870Z,"  -75"
2016-09-08T21:10:03.901Z,"  -75"
2016-09-08T21:15:01.041Z,"  -75"
2016-09-08T21:19:57.879Z,"  -74"
2016-09-08T21:24:54.878Z,"  -74"
2016-09-08T21:29:51.443Z,"  -73"
2016-09-08T21:34:47.963Z,"  -73"
2016-09-08T21:39:45.038Z,"  -74"
2016-09-08T21:44:41.802Z,"  -71"
2016-09-08T21:49:38.520Z,"  -73"
2016-09-08T21:54:35.250Z,"  -74"
2016-09-08T21:59:34.618Z,"  -73"
2016-09-08T22:04:30.993Z,"  -75"
2016-09-08T22:09:27.533Z,"  -74"
2016-09-08T22:14:24.328Z,"  -74"
2016-09-08T22:19:20.963Z,"  -74"
2016-09-08T22:24:17.704Z,"  -74"
2016-09-08T22:29:14.348Z,"  -73"
2016-09-08T22:34:11.293Z,"  -74"
2016-09-08T22:39:07.984Z,"  -73"
2016-09-08T22:44:05.111Z,"  -73"
2016-09-08T22:49:01.849Z,"  -73"
2016-09-08T22:53:58.908Z,"  -75"
2016-09-08T22:58:55.373Z,"  -74"
2016-09-08T23:03:51.856Z,"  -74"
2016-09-08T23:08:48.298Z,"  -74"
2016-09-08T23:13:45.195Z,"  -74"
2016-09-08T23:18:42.924Z,"  -74"
2016-09-08T23:23:39.305Z,"  -74"
2016-09-08T23:28:35.942Z,"  -73"
2016-09-08T23:33:32.586Z,"  -72"
2016-09-08T23:38:28.911Z,"  -74"
2016-09-08T23:43:25.880Z,"  -74"
2016-09-08T23:48:22.475Z,"  -74"
2016-09-08T23:53:19.746Z,"  -74"
2016-09-08T23:58:16.335Z,"  -72"
